Nanticoke — WDC4353 — position and weather

sailwx.info

Track history (hours):
 
Tides and Currents Weather Stations Pressure Air Temp Water Temp Dewpoint Dewpoint Depression Visibility Wind Speed Wind Dir Waves Ship Positions

Nanticoke

Owner: Vane Line Bunkering, Inc., Philadelphia, PA. More information available from US FCC via Universal Licensing System and Coast Guard Vessel Documentation Center.

Last reported at 2017-May-23 16:58 UTC. Time now 2017-May-23 17:06 UTC.
Position N 40°05' W 073°55'.

Length 34 m; draft 4.7 m.

Type: Towing. MMSI: 367023480.

Date/timePositionNaut miles runAvg speedWind from/ knotsBaromVisibWave heightAir tempDewpointWater temp
2017-May-23 16:58N 40°05' W 073°55'20 7.8
2017-May-23 14:21N 40°25' W 073°55'6 7.4
2017-May-23 13:30N 40°28' W 074°02'2 4.3
2017-May-23 12:58N 40°29' W 074°05'3 7.4
2017-May-23 12:30N 40°30' W 074°09'5 3.4
2017-May-23 10:59N 40°33' W 074°15'4 0.3
2017-May-22 22:55N 40°35' W 074°12'4 4.6
2017-May-22 22:08N 40°33' W 074°15'1 3.1
2017-May-22 21:51N 40°33' W 074°15'3 7.2
2017-May-22 21:29N 40°35' W 074°12'4 7.3
2017-May-22 21:00N 40°39' W 074°11'5 9.4
2017-May-22 20:30N 40°39' W 074°05'3 5.5
2017-May-22 19:58N 40°40' W 074°01'0 0.0
2017-May-22 19:28N 40°40' W 074°01'0 0.0
2017-May-22 18:59N 40°40' W 074°01'0 0.0
2017-May-22 18:29N 40°40' W 074°01'0 0.0
2017-May-22 17:59N 40°40' W 074°01'0 0.0
2017-May-22 17:29N 40°40' W 074°01'1 3.0
2017-May-22 17:00N 40°41' W 074°01'1 1.5
2017-May-22 16:31N 40°41' W 074°02'4 7.1
2017-May-22 16:01N 40°38' W 074°04'0 0.4
2017-May-22 15:30N 40°37' W 074°04'2 3.2
2017-May-22 15:00N 40°39' W 074°03'3 2.7
2017-May-22 13:58N 40°40' W 074°00'0 0.0
2017-May-22 13:29N 40°40' W 074°00'0 0.0
2017-May-22 12:59N 40°40' W 074°00'0 0.0
2017-May-22 12:29N 40°40' W 074°00'0 0.0
2017-May-22 12:00N 40°40' W 074°00'0 0.0
2017-May-22 11:30N 40°40' W 074°00'0 0.0
2017-May-22 11:00N 40°40' W 074°00'0 0.0
2017-May-22 10:28N 40°40' W 074°00'0 0.0
2017-May-22 09:58N 40°40' W 074°00'0 0.0
2017-May-22 09:28N 40°40' W 074°00'0 0.0
2017-May-22 08:59N 40°40' W 074°00'0 0.0
2017-May-22 08:29N 40°40' W 074°00'0 0.0
2017-May-22 07:59N 40°40' W 074°00'0 0.1
2017-May-22 07:30N 40°40' W 074°00'0 0.0
2017-May-22 07:00N 40°40' W 074°00'0 0.0
2017-May-22 06:30N 40°40' W 074°00'0 0.0
2017-May-22 05:58N 40°40' W 074°00'0 0.0
2017-May-22 05:28N 40°40' W 074°00'0 0.0
2017-May-22 04:58N 40°40' W 074°00'0 0.0
2017-May-22 04:29N 40°40' W 074°00'0 0.0
2017-May-22 03:59N 40°40' W 074°00'0 0.0
2017-May-22 03:29N 40°40' W 074°00'0 0.0
2017-May-22 03:00N 40°40' W 074°00'0 0.0
2017-May-22 02:30N 40°40' W 074°00'0 0.0
2017-May-22 02:00N 40°40' W 074°00'0 0.0
2017-May-22 01:30N 40°40' W 074°00'0 0.1
2017-May-22 01:00N 40°40' W 074°00'0 0.0
2017-May-22 00:28N 40°40' W 074°00'1 1.9
2017-May-22 00:00N 40°40' W 074°01'1 2.7
2017-May-21 23:28N 40°41' W 074°03'3 5.5
2017-May-21 23:00N 40°39' W 074°06'3 5.8
2017-May-21 22:30N 40°41' W 074°09'1 1.3
2017-May-21 21:58N 40°41' W 074°09'0 0.0
2017-May-21 21:29N 40°41' W 074°09'0 0.0
2017-May-21 20:56N 40°41' W 074°09'0 0.0
2017-May-21 20:29N 40°41' W 074°09'0 0.0
2017-May-21 20:00N 40°41' W 074°09'0 0.0
2017-May-21 19:30N 40°41' W 074°09'0 0.0
2017-May-21 19:00N 40°41' W 074°09'0 0.0
2017-May-21 18:31N 40°41' W 074°09'1 1.9
2017-May-21 18:00N 40°40' W 074°08'3 5.2
2017-May-21 17:30N 40°39' W 074°05'1 1.6
2017-May-21 17:00N 40°39' W 074°07'1 1.1
2017-May-21 16:28N 40°39' W 074°07'0 0.0
2017-May-21 15:52N 40°39' W 074°07'0 0.0
2017-May-21 15:29N 40°39' W 074°07'0 0.0
2017-May-21 14:59N 40°39' W 074°07'0 0.0
2017-May-21 14:29N 40°39' W 074°07'0 0.0
2017-May-21 13:27N 40°39' W 074°07'0 0.0
2017-May-21 13:00N 40°39' W 074°07'0 0.0
2017-May-21 12:30N 40°39' W 074°07'0 0.0
2017-May-21 11:58N 40°39' W 074°07'0 0.0
2017-May-21 11:28N 40°39' W 074°07'1 3.1
2017-May-21 11:00N 40°39' W 074°05'1 2.3
2017-May-21 10:30N 40°39' W 074°04'3 5.4
2017-May-21 09:59N 40°40' W 074°01'0 0.6
2017-May-21 09:29N 40°40' W 074°00'0 0.0
2017-May-21 09:00N 40°40' W 074°00'0 0.0
2017-May-21 08:30N 40°40' W 074°00'0 0.0
2017-May-21 08:00N 40°40' W 074°00'0 0.0
2017-May-21 07:31N 40°40' W 074°00'0 0.0
2017-May-21 06:58N 40°40' W 074°00'0 0.0
2017-May-21 06:28N 40°40' W 074°00'0 0.0
2017-May-21 05:58N 40°40' W 074°00'0 0.0
2017-May-21 05:29N 40°40' W 074°00'0 0.0
2017-May-21 04:59N 40°40' W 074°00'0 0.0
2017-May-21 04:29N 40°40' W 074°00'0 0.0
2017-May-21 04:00N 40°40' W 074°00'0 0.0
2017-May-21 03:30N 40°40' W 074°00'0 0.0
2017-May-21 03:00N 40°40' W 074°00'0 0.0
2017-May-21 02:28N 40°40' W 074°00'0 0.0
2017-May-21 01:58N 40°40' W 074°00'0 0.0
2017-May-21 01:28N 40°40' W 074°00'0 0.0
2017-May-21 00:59N 40°40' W 074°00'0 0.0
2017-May-21 00:29N 40°40' W 074°00'0 0.0
2017-May-20 23:59N 40°40' W 074°00'0 0.0
2017-May-20 23:30N 40°40' W 074°00'0 0.0
2017-May-20 23:00N 40°40' W 074°00'0 0.0
2017-May-20 22:30N 40°40' W 074°00'0 0.0
2017-May-20 21:58N 40°40' W 074°00'0 0.0
2017-May-20 21:28N 40°40' W 074°00'0 0.0
2017-May-20 20:58N 40°40' W 074°00'0 0.0
2017-May-20 20:29N 40°40' W 074°00'0 0.0
2017-May-20 19:59N 40°40' W 074°00'4 8.0
2017-May-20 19:30N 40°39' W 074°05'1 1.0
2017-May-20 19:00N 40°39' W 074°04'3 6.4
2017-May-20 18:30N 40°40' W 074°00'0 0.1
2017-May-20 17:59N 40°40' W 074°00'0 0.1
2017-May-20 17:29N 40°40' W 074°00'2 4.1
2017-May-20 16:58N 40°40' W 074°03'1 3.2
2017-May-20 16:31N 40°39' W 074°04'2 3.3
2017-May-20 16:00N 40°39' W 074°06'4 7.9
2017-May-20 15:30N 40°40' W 074°01'0 0.5
2017-May-20 15:00N 40°40' W 074°01'1 0.5
2017-May-20 13:58N 40°40' W 074°00'0 0.0
2017-May-20 13:28N 40°40' W 074°00'0 0.0
2017-May-20 12:58N 40°40' W 074°00'0 0.0
2017-May-20 12:29N 40°40' W 074°00'0 0.0
2017-May-20 11:59N 40°40' W 074°00'0 0.9
2017-May-20 11:31N 40°40' W 074°01'4 7.6
2017-May-20 11:01N 40°39' W 074°05'0 0.8
2017-May-20 10:29N 40°39' W 074°06'2 3.5
2017-May-20 09:58N 40°40' W 074°04'0 0.3
2017-May-20 09:30N 40°40' W 074°04'2 3.5
2017-May-20 08:59N 40°39' W 074°03'0 0.2
2017-May-20 08:29N 40°39' W 074°03'0 0.0
2017-May-20 08:00N 40°39' W 074°03'0 0.1
2017-May-20 07:30N 40°39' W 074°03'0 0.0
2017-May-20 07:00N 40°39' W 074°03'0 0.1
2017-May-20 06:28N 40°39' W 074°03'1 1.6
2017-May-20 05:58N 40°38' W 074°04'0 0.0
2017-May-20 05:29N 40°38' W 074°04'0 0.0
2017-May-20 04:59N 40°38' W 074°04'0 0.1
2017-May-20 04:29N 40°38' W 074°04'0 0.0
2017-May-20 04:00N 40°38' W 074°04'0 0.1
2017-May-20 03:30N 40°38' W 074°04'0 0.0
2017-May-20 03:00N 40°38' W 074°04'0 0.0
2017-May-20 02:28N 40°38' W 074°04'0 0.0
2017-May-20 01:58N 40°38' W 074°04'1 3.1
2017-May-20 01:30N 40°39' W 074°06'3 5.1
2017-May-20 01:00N 40°40' W 074°09'3 5.2
2017-May-20 00:30N 40°38' W 074°12'0 0.0
2017-May-19 23:58N 40°38' W 074°12'0 0.0
2017-May-19 23:28N 40°38' W 074°12'0 0.0
2017-May-19 22:58N 40°38' W 074°12'0 0.0
2017-May-19 22:20N 40°38' W 074°12'0 0.0
2017-May-19 21:59N 40°38' W 074°12'0 0.0
2017-May-19 21:29N 40°38' W 074°12'0 0.0
2017-May-19 20:48N 40°38' W 074°12'0 0.0
2017-May-19 20:30N 40°38' W 074°12'0 0.0
2017-May-19 20:00N 40°38' W 074°12'0 0.0
2017-May-19 19:30N 40°38' W 074°12'0 0.0
2017-May-19 18:58N 40°38' W 074°12'2 5.2
2017-May-19 18:30N 40°39' W 074°09'0 0.9
2017-May-19 17:59N 40°40' W 074°09'2 3.3
2017-May-19 17:31N 40°41' W 074°09'0 0.0
2017-May-19 17:00N 40°41' W 074°09'0 0.0
2017-May-19 16:30N 40°41' W 074°09'0 0.0
2017-May-19 15:58N 40°41' W 074°09'0 0.0
2017-May-19 15:28N 40°41' W 074°09'0 0.0
2017-May-19 14:58N 40°41' W 074°09'0 0.0
2017-May-19 13:59N 40°41' W 074°09'0 0.0
2017-May-19 13:29N 40°41' W 074°09'2 4.4
2017-May-19 13:00N 40°39' W 074°09'2 3.6
2017-May-19 12:30N 40°39' W 074°07'4 7.8
2017-May-19 12:00N 40°38' W 074°12'2 4.5
2017-May-19 11:29N 40°36' W 074°12'3 5.7
2017-May-19 11:00N 40°39' W 074°11'3 6.0
2017-May-19 10:30N 40°38' W 074°07'0 0.0
2017-May-19 10:00N 40°38' W 074°07'0 0.0
2017-May-19 09:30N 40°38' W 074°07'0 0.0
2017-May-19 09:01N 40°38' W 074°07'0 0.0
2017-May-19 08:28N 40°38' W 074°07'0 0.0
2017-May-19 07:58N 40°38' W 074°07'0 0.0
2017-May-19 07:29N 40°38' W 074°07'0 0.0
2017-May-19 06:59N 40°38' W 074°07'0 0.0
2017-May-19 06:29N 40°38' W 074°07'0 0.0
2017-May-19 06:00N 40°38' W 074°07'0 0.0
2017-May-19 05:30N 40°38' W 074°07'0 0.0
2017-May-19 04:57N 40°38' W 074°07'0 0.0
2017-May-19 04:31N 40°38' W 074°07'0 0.1
2017-May-19 04:00N 40°39' W 074°07'4 7.3
2017-May-19 03:28N 40°40' W 074°03'2 4.0
2017-May-19 03:00N 40°39' W 074°04'3 6.5
2017-May-19 02:30N 40°40' W 074°09'1 2.7
2017-May-19 01:59N 40°41' W 074°09'0 0.0
2017-May-19 01:30N 40°41' W 074°09'0 1.0
2017-May-19 01:00N 40°41' W 074°08'3 5.1
2017-May-19 00:31N 40°39' W 074°06'2 3.5
2017-May-19 00:00N 40°39' W 074°04'3 5.7
2017-May-18 23:30N 40°40' W 074°00'3 6.9
2017-May-18 22:59N 40°38' W 074°04'0 0.3
2017-May-18 22:30N 40°38' W 074°04'0 0.1
2017-May-18 22:00N 40°38' W 074°04'0 0.2
2017-May-18 21:30N 40°38' W 074°04'0 0.1
2017-May-18 20:58N 40°38' W 074°04'0 0.2
2017-May-18 20:30N 40°38' W 074°04'3 6.7
2017-May-18 20:00N 40°40' W 074°00'0 0.0
2017-May-18 19:30N 40°40' W 074°00'2 4.3
2017-May-18 19:00N 40°39' W 074°02'0 0.4
2017-May-18 18:30N 40°39' W 074°03'4 8.2
2017-May-18 18:01N 40°43' W 074°01'3 5.8
2017-May-18 17:26N 40°46' W 073°60'0 0.1
2017-May-18 16:53N 40°46' W 073°60'0 0.0
2017-May-18 16:29N 40°46' W 073°60'0 0.0
2017-May-18 15:59N 40°46' W 073°60'0 0.0
2017-May-18 15:30N 40°46' W 073°60'0 0.0
2017-May-18 14:51N 40°46' W 073°60'0 0.0
2017-May-18 14:01N 40°46' W 073°60'0 0.0
2017-May-18 13:28N 40°46' W 073°60'0 0.1
2017-May-18 13:00N 40°46' W 073°60'0 0.0
2017-May-18 12:30N 40°46' W 073°60'0 0.0
2017-May-18 12:00N 40°46' W 073°60'0 0.1
2017-May-18 11:29N 40°46' W 074°00'1 2.5
2017-May-18 10:58N 40°45' W 074°01'3 5.7
2017-May-18 10:30N 40°42' W 074°02'2 4.4
2017-May-18 09:58N 40°40' W 074°03'0 0.0
2017-May-18 09:29N 40°40' W 074°03'1 1.9
2017-May-18 09:00N 40°40' W 074°02'1 2.6
2017-May-18 08:30N 40°40' W 074°00'3 6.3
2017-May-18 08:01N 40°38' W 074°03'0 0.7
2017-May-18 07:29N 40°38' W 074°04'0 0.0
2017-May-18 07:00N 40°38' W 074°04'0 0.0
2017-May-18 06:30N 40°38' W 074°04'0 0.0
2017-May-18 06:00N 40°38' W 074°04'0 0.1
2017-May-18 05:28N 40°38' W 074°04'0 0.0
2017-May-18 04:58N 40°38' W 074°04'0 0.0
2017-May-18 04:28N 40°38' W 074°04'0 0.9
2017-May-18 03:58N 40°38' W 074°04'3 7.0
2017-May-18 03:30N 40°40' W 074°00'0 0.2
2017-May-18 02:58N 40°40' W 074°00'0 0.0
2017-May-18 02:28N 40°40' W 074°00'0 0.0
2017-May-18 01:58N 40°40' W 074°00'0 0.0
2017-May-18 01:29N 40°40' W 074°00'0 0.0
2017-May-18 00:59N 40°40' W 074°00'0 0.0
2017-May-18 00:29N 40°40' W 074°00'0 0.0
2017-May-18 00:00N 40°40' W 074°00'0 0.0
2017-May-17 23:30N 40°40' W 074°00'1 2.8
2017-May-17 23:00N 40°41' W 074°00'0 0.1
2017-May-17 22:31N 40°41' W 074°00'3 6.6
2017-May-17 22:00N 40°40' W 074°04'1 1.8
2017-May-17 21:29N 40°39' W 074°05'1 1.4
2017-May-17 20:56N 40°39' W 074°06'1 2.9
2017-May-17 20:31N 40°39' W 074°04'0 0.9
2017-May-17 19:58N 40°38' W 074°04'0 0.4
2017-May-17 19:30N 40°38' W 074°04'1 2.2
2017-May-17 19:00N 40°39' W 074°03'1 2.3
2017-May-17 18:29N 40°41' W 074°03'0 0.0
2017-May-17 17:59N 40°41' W 074°03'0 0.0
2017-May-17 17:29N 40°41' W 074°03'0 0.1
2017-May-17 17:00N 40°40' W 074°03'0 0.1
2017-May-17 16:30N 40°40' W 074°03'0 0.0
2017-May-17 16:00N 40°40' W 074°03'0 0.0
2017-May-17 15:28N 40°40' W 074°03'2 4.9
2017-May-17 15:00N 40°39' W 074°05'1 0.5
2017-May-17 13:58N 40°39' W 074°06'0 0.0
2017-May-17 13:29N 40°39' W 074°06'0 0.0
2017-May-17 12:59N 40°39' W 074°06'2 4.3
2017-May-17 12:30N 40°39' W 074°03'2 4.5
2017-May-17 11:58N 40°40' W 074°00'3 6.4
2017-May-17 11:31N 40°39' W 074°04'4 7.8
2017-May-17 11:00N 40°39' W 074°09'1 1.1
2017-May-17 10:30N 40°39' W 074°09'3 5.1
2017-May-17 09:58N 40°39' W 074°05'1 1.1
2017-May-17 09:29N 40°39' W 074°06'2 4.2
2017-May-17 09:00N 40°40' W 074°08'1 2.6
2017-May-17 08:28N 40°41' W 074°09'0 0.0
2017-May-17 07:58N 40°41' W 074°09'0 0.0
2017-May-17 07:28N 40°41' W 074°09'0 0.0
2017-May-17 06:59N 40°41' W 074°09'0 0.0
2017-May-17 06:29N 40°41' W 074°09'0 0.0
2017-May-17 05:59N 40°41' W 074°09'0 0.0
2017-May-17 05:31N 40°41' W 074°09'3 5.7
2017-May-17 05:00N 40°39' W 074°08'1 2.3
2017-May-17 04:28N 40°39' W 074°06'0 0.6
2017-May-17 03:59N 40°39' W 074°06'0 0.0
2017-May-17 03:29N 40°39' W 074°06'0 0.0
2017-May-17 02:59N 40°39' W 074°06'0 0.0
2017-May-17 02:27N 40°39' W 074°06'0 0.0
2017-May-17 02:00N 40°39' W 074°06'3 6.3
2017-May-17 01:31N 40°40' W 074°03'4 7.8
2017-May-17 01:00N 40°42' W 073°58'1 1.4
2017-May-17 00:30N 40°42' W 073°59'1 1.3
2017-May-17 00:00N 40°42' W 074°00'2 4.8
2017-May-16 23:30N 40°40' W 074°02'2 4.9
2017-May-16 23:00N 40°39' W 074°05'1 2.0
2017-May-16 22:30N 40°39' W 074°06'4 9.0
2017-May-16 22:00N 40°40' W 074°00'0 0.3
2017-May-16 21:29N 40°40' W 074°00'0 0.0
2017-May-16 20:59N 40°40' W 074°00'0 0.1
2017-May-16 20:29N 40°40' W 074°00'0 0.1
2017-May-16 20:00N 40°40' W 074°00'0 0.1
2017-May-16 19:30N 40°40' W 074°00'0 0.0
2017-May-16 19:00N 40°40' W 074°00'0 0.0
2017-May-16 18:30N 40°40' W 074°00'0 0.0
2017-May-16 17:58N 40°40' W 074°00'0 0.0
2017-May-16 17:28N 40°40' W 074°00'0 0.0
2017-May-16 16:58N 40°40' W 074°00'0 0.0
2017-May-16 16:29N 40°40' W 074°00'0 0.0
2017-May-16 15:59N 40°40' W 074°00'0 0.0
2017-May-16 15:29N 40°40' W 074°00'0 0.0
2017-May-16 14:59N 40°40' W 074°00'0 0.0
2017-May-16 14:30N 40°40' W 074°00'0 0.1
2017-May-16 13:30N 40°40' W 074°00'4 8.4
2017-May-16 13:00N 40°39' W 074°06'1 1.8
2017-May-16 12:30N 40°39' W 074°07'2 3.7
2017-May-16 12:00N 40°39' W 074°04'2 3.4
2017-May-16 11:30N 40°40' W 074°03'1 1.9
2017-May-16 10:59N 40°40' W 074°04'0 0.0
2017-May-16 10:29N 40°40' W 074°04'0 0.0
2017-May-16 10:00N 40°40' W 074°04'0 0.0
2017-May-16 09:30N 40°40' W 074°04'1 2.7
2017-May-16 08:59N 40°39' W 074°05'0 0.0
2017-May-16 08:29N 40°39' W 074°05'3 5.8
2017-May-16 08:00N 40°39' W 074°09'2 4.2
2017-May-16 07:31N 40°41' W 074°09'0 0.0
2017-May-16 06:58N 40°41' W 074°09'0 0.0
2017-May-16 06:28N 40°41' W 074°09'0 0.0
2017-May-16 05:58N 40°41' W 074°09'0 0.0
2017-May-16 05:29N 40°41' W 074°09'0 0.0
2017-May-16 04:59N 40°41' W 074°09'0 0.0
2017-May-16 04:29N 40°41' W 074°09'0 0.0
2017-May-16 04:00N 40°41' W 074°09'0 0.2
2017-May-16 03:30N 40°41' W 074°09'0 0.2
2017-May-16 03:00N 40°41' W 074°09'0 0.0
2017-May-16 02:29N 40°41' W 074°09'0 0.0
2017-May-16 01:59N 40°41' W 074°09'0 0.0
2017-May-16 01:29N 40°41' W 074°09'0 0.0
2017-May-16 01:00N 40°41' W 074°09'0 0.0
2017-May-16 00:30N 40°41' W 074°09'0 0.0
2017-May-16 00:00N 40°41' W 074°09'0 0.0
2017-May-15 23:28N 40°41' W 074°09'0 0.4
2017-May-15 22:55N 40°41' W 074°09'1 1.6
2017-May-15 22:30N 40°40' W 074°08'0 0.9
2017-May-15 22:01N 40°40' W 074°09'0 0.2
2017-May-15 21:28N 40°40' W 074°09'0 0.1
2017-May-15 21:00N 40°40' W 074°09'1 2.8
2017-May-15 20:30N 40°39' W 074°08'2 3.5
2017-May-15 20:00N 40°39' W 074°05'0 0.7
2017-May-15 19:30N 40°39' W 074°05'0 0.2
2017-May-15 18:59N 40°39' W 074°05'0 0.0
2017-May-15 18:29N 40°39' W 074°05'1 3.1
2017-May-15 18:00N 40°40' W 074°03'2 4.9
2017-May-15 17:30N 40°40' W 074°00'0 0.0
2017-May-15 16:58N 40°40' W 074°00'0 0.0
2017-May-15 16:28N 40°40' W 074°00'0 0.0
2017-May-15 15:58N 40°40' W 074°00'0 0.0
2017-May-15 15:29N 40°40' W 074°00'0 0.0
2017-May-15 14:59N 40°40' W 074°00'0 0.0
2017-May-15 14:29N 40°40' W 074°00'3 3.3
2017-May-15 13:30N 40°40' W 074°04'1 1.0
2017-May-15 12:58N 40°40' W 074°05'0 0.0
2017-May-15 12:28N 40°40' W 074°05'0 0.0
2017-May-15 11:59N 40°40' W 074°05'0 0.0
2017-May-15 11:29N 40°40' W 074°05'0 0.0
2017-May-15 10:59N 40°40' W 074°05'0 0.0
2017-May-15 10:30N 40°40' W 074°05'1 1.7
2017-May-15 09:59N 40°39' W 074°05'3 6.1
2017-May-15 09:30N 40°39' W 074°09'2 4.3
2017-May-15 08:58N 40°41' W 074°10'0 0.0
2017-May-15 08:28N 40°41' W 074°10'0 0.0
2017-May-15 07:58N 40°41' W 074°10'0 0.0
2017-May-15 07:29N 40°41' W 074°10'0 0.0
2017-May-15 06:59N 40°41' W 074°10'0 0.0
2017-May-15 06:29N 40°41' W 074°10'0 0.0
2017-May-15 06:00N 40°41' W 074°10'0 0.0
2017-May-15 05:30N 40°41' W 074°10'0 0.0
2017-May-15 05:00N 40°41' W 074°10'0 0.0
2017-May-15 04:28N 40°41' W 074°10'0 0.0
2017-May-15 03:55N 40°41' W 074°10'0 0.0
2017-May-15 03:28N 40°41' W 074°10'0 1.0
2017-May-15 03:00N 40°41' W 074°09'0 0.1
2017-May-15 02:29N 40°41' W 074°09'0 0.2
2017-May-15 02:00N 40°41' W 074°09'0 0.5
2017-May-15 01:30N 40°41' W 074°09'0 0.0
2017-May-15 00:57N 40°41' W 074°09'0 0.0
2017-May-15 00:30N 40°41' W 074°09'0 0.0
2017-May-15 00:01N 40°41' W 074°09'2 3.3
2017-May-14 23:30N 40°40' W 074°09'3 5.3
2017-May-14 23:00N 40°38' W 074°12'1 1.4
2017-May-14 22:30N 40°38' W 074°12'4 8.0
2017-May-14 22:00N 40°39' W 074°07'510.5
2017-May-14 21:31N 40°41' W 074°01'1 1.3
2017-May-14 20:59N 40°41' W 074°00'0 0.0
2017-May-14 20:30N 40°41' W 074°00'0 0.1
2017-May-14 19:58N 40°41' W 074°00'0 0.0
2017-May-14 19:28N 40°41' W 074°00'0 0.0
2017-May-14 18:59N 40°41' W 074°00'0 0.1
2017-May-14 18:29N 40°41' W 074°00'0 0.2
2017-May-14 17:59N 40°41' W 074°00'1 2.7
2017-May-14 17:28N 40°40' W 074°00'0 0.0
2017-May-14 16:58N 40°40' W 074°00'2 4.3
2017-May-14 16:30N 40°40' W 074°03'0 0.1
2017-May-14 15:59N 40°40' W 074°03'2 3.9
2017-May-14 15:30N 40°40' W 074°00'1 2.7
2017-May-14 15:00N 40°39' W 074°02'5 9.8
2017-May-14 14:30N 40°39' W 074°08'3 2.9
2017-May-14 13:29N 40°38' W 074°12'1 1.3
2017-May-14 12:59N 40°38' W 074°12'2 5.3
2017-May-14 12:30N 40°39' W 074°09'2 3.1
2017-May-14 11:59N 40°41' W 074°09'0 0.1
2017-May-14 11:30N 40°41' W 074°09'0 0.4
2017-May-14 11:00N 40°41' W 074°09'1 1.2
2017-May-14 10:30N 40°41' W 074°09'1 1.4
2017-May-14 10:00N 40°40' W 074°08'0 0.9
2017-May-14 09:29N 40°40' W 074°09'0 0.2
2017-May-14 08:59N 40°40' W 074°09'0 0.2
2017-May-14 08:29N 40°40' W 074°09'1 2.3
2017-May-14 08:00N 40°39' W 074°09'2 4.3
2017-May-14 07:31N 40°39' W 074°06'0 0.2
2017-May-14 06:58N 40°39' W 074°06'2 3.4
2017-May-14 06:30N 40°39' W 074°04'3 5.6
2017-May-14 05:59N 40°40' W 074°00'0 0.0
2017-May-14 05:29N 40°40' W 074°00'0 0.0
2017-May-14 05:00N 40°40' W 074°00'0 0.0
2017-May-14 04:30N 40°40' W 074°00'0 0.0
2017-May-14 04:00N 40°40' W 074°00'0 0.0
2017-May-14 03:28N 40°40' W 074°00'0 0.0
2017-May-14 02:58N 40°40' W 074°00'0 0.0
2017-May-14 02:28N 40°40' W 074°00'0 0.0
2017-May-14 01:59N 40°40' W 074°00'0 0.0
2017-May-14 01:29N 40°40' W 074°00'0 0.0
2017-May-14 00:59N 40°40' W 074°00'0 0.0
2017-May-14 00:30N 40°40' W 074°00'0 0.0
2017-May-14 00:00N 40°40' W 074°00'0 0.0
2017-May-13 23:30N 40°40' W 074°00'0 0.0
2017-May-13 23:00N 40°40' W 074°00'2 3.6
2017-May-13 22:29N 40°40' W 074°03'2 3.6
2017-May-13 21:58N 40°40' W 074°01'0 0.1
2017-May-13 21:28N 40°40' W 074°00'0 0.0
2017-May-13 20:58N 40°40' W 074°00'0 0.0
2017-May-13 20:29N 40°40' W 074°00'1 1.3
2017-May-13 20:00N 40°40' W 074°01'1 2.7
2017-May-13 19:30N 40°41' W 074°03'510.0
2017-May-13 19:01N 40°45' W 074°01'1 1.8
2017-May-13 18:28N 40°46' W 073°60'0 0.0
2017-May-13 17:59N 40°46' W 073°60'0 0.0
2017-May-13 17:29N 40°46' W 073°60'0 0.0
2017-May-13 16:59N 40°46' W 073°60'  
Track history (hours):
 
Tides and Currents Weather Stations Pressure Air Temp Water Temp Dewpoint Dewpoint Depression Visibility Wind Speed Wind Dir Waves Ship Positions

Nanticoke

Owner: Vane Line Bunkering, Inc., Philadelphia, PA. More information available from US FCC via Universal Licensing System and Coast Guard Vessel Documentation Center.

Last reported at 2017-May-23 16:58 UTC. Time now 2017-May-23 17:06 UTC.
Position N 40°05' W 073°55'.

Length 34 m; draft 4.7 m.

Type: Towing. MMSI: 367023480.

Date/timePositionNaut miles runAvg speedWind from/ knotsBaromVisibWave heightAir tempDewpointWater temp
2017-May-23 16:58N 40°05' W 073°55'20 7.8
2017-May-23 14:21N 40°25' W 073°55'6 7.4
2017-May-23 13:30N 40°28' W 074°02'2 4.3
2017-May-23 12:58N 40°29' W 074°05'3 7.4
2017-May-23 12:30N 40°30' W 074°09'5 3.4
2017-May-23 10:59N 40°33' W 074°15'4 0.3
2017-May-22 22:55N 40°35' W 074°12'4 4.6
2017-May-22 22:08N 40°33' W 074°15'1 3.1
2017-May-22 21:51N 40°33' W 074°15'3 7.2
2017-May-22 21:29N 40°35' W 074°12'4 7.3
2017-May-22 21:00N 40°39' W 074°11'5 9.4
2017-May-22 20:30N 40°39' W 074°05'3 5.5
2017-May-22 19:58N 40°40' W 074°01'0 0.0
2017-May-22 19:28N 40°40' W 074°01'0 0.0
2017-May-22 18:59N 40°40' W 074°01'0 0.0
2017-May-22 18:29N 40°40' W 074°01'0 0.0
2017-May-22 17:59N 40°40' W 074°01'0 0.0
2017-May-22 17:29N 40°40' W 074°01'1 3.0
2017-May-22 17:00N 40°41' W 074°01'1 1.5
2017-May-22 16:31N 40°41' W 074°02'4 7.1
2017-May-22 16:01N 40°38' W 074°04'0 0.4
2017-May-22 15:30N 40°37' W 074°04'2 3.2
2017-May-22 15:00N 40°39' W 074°03'3 2.7
2017-May-22 13:58N 40°40' W 074°00'0 0.0
2017-May-22 13:29N 40°40' W 074°00'0 0.0
2017-May-22 12:59N 40°40' W 074°00'0 0.0
2017-May-22 12:29N 40°40' W 074°00'0 0.0
2017-May-22 12:00N 40°40' W 074°00'0 0.0
2017-May-22 11:30N 40°40' W 074°00'0 0.0
2017-May-22 11:00N 40°40' W 074°00'0 0.0
2017-May-22 10:28N 40°40' W 074°00'0 0.0
2017-May-22 09:58N 40°40' W 074°00'0 0.0
2017-May-22 09:28N 40°40' W 074°00'0 0.0
2017-May-22 08:59N 40°40' W 074°00'0 0.0
2017-May-22 08:29N 40°40' W 074°00'0 0.0
2017-May-22 07:59N 40°40' W 074°00'0 0.1
2017-May-22 07:30N 40°40' W 074°00'0 0.0
2017-May-22 07:00N 40°40' W 074°00'0 0.0
2017-May-22 06:30N 40°40' W 074°00'0 0.0
2017-May-22 05:58N 40°40' W 074°00'0 0.0
2017-May-22 05:28N 40°40' W 074°00'0 0.0
2017-May-22 04:58N 40°40' W 074°00'0 0.0
2017-May-22 04:29N 40°40' W 074°00'0 0.0
2017-May-22 03:59N 40°40' W 074°00'0 0.0
2017-May-22 03:29N 40°40' W 074°00'0 0.0
2017-May-22 03:00N 40°40' W 074°00'0 0.0
2017-May-22 02:30N 40°40' W 074°00'0 0.0
2017-May-22 02:00N 40°40' W 074°00'0 0.0
2017-May-22 01:30N 40°40' W 074°00'0 0.1
2017-May-22 01:00N 40°40' W 074°00'0 0.0
2017-May-22 00:28N 40°40' W 074°00'1 1.9
2017-May-22 00:00N 40°40' W 074°01'1 2.7
2017-May-21 23:28N 40°41' W 074°03'3 5.5
2017-May-21 23:00N 40°39' W 074°06'3 5.8
2017-May-21 22:30N 40°41' W 074°09'1 1.3
2017-May-21 21:58N 40°41' W 074°09'0 0.0
2017-May-21 21:29N 40°41' W 074°09'0 0.0
2017-May-21 20:56N 40°41' W 074°09'0 0.0
2017-May-21 20:29N 40°41' W 074°09'0 0.0
2017-May-21 20:00N 40°41' W 074°09'0 0.0
2017-May-21 19:30N 40°41' W 074°09'0 0.0
2017-May-21 19:00N 40°41' W 074°09'0 0.0
2017-May-21 18:31N 40°41' W 074°09'1 1.9
2017-May-21 18:00N 40°40' W 074°08'3 5.2
2017-May-21 17:30N 40°39' W 074°05'1 1.6
2017-May-21 17:00N 40°39' W 074°07'1 1.1
2017-May-21 16:28N 40°39' W 074°07'0 0.0
2017-May-21 15:52N 40°39' W 074°07'0 0.0
2017-May-21 15:29N 40°39' W 074°07'0 0.0
2017-May-21 14:59N 40°39' W 074°07'0 0.0
2017-May-21 14:29N 40°39' W 074°07'0 0.0
2017-May-21 13:27N 40°39' W 074°07'0 0.0
2017-May-21 13:00N 40°39' W 074°07'0 0.0
2017-May-21 12:30N 40°39' W 074°07'0 0.0
2017-May-21 11:58N 40°39' W 074°07'0 0.0
2017-May-21 11:28N 40°39' W 074°07'1 3.1
2017-May-21 11:00N 40°39' W 074°05'1 2.3
2017-May-21 10:30N 40°39' W 074°04'3 5.4
2017-May-21 09:59N 40°40' W 074°01'0 0.6
2017-May-21 09:29N 40°40' W 074°00'0 0.0
2017-May-21 09:00N 40°40' W 074°00'0 0.0
2017-May-21 08:30N 40°40' W 074°00'0 0.0
2017-May-21 08:00N 40°40' W 074°00'0 0.0
2017-May-21 07:31N 40°40' W 074°00'0 0.0
2017-May-21 06:58N 40°40' W 074°00'0 0.0
2017-May-21 06:28N 40°40' W 074°00'0 0.0
2017-May-21 05:58N 40°40' W 074°00'0 0.0
2017-May-21 05:29N 40°40' W 074°00'0 0.0
2017-May-21 04:59N 40°40' W 074°00'0 0.0
2017-May-21 04:29N 40°40' W 074°00'0 0.0
2017-May-21 04:00N 40°40' W 074°00'0 0.0
2017-May-21 03:30N 40°40' W 074°00'0 0.0
2017-May-21 03:00N 40°40' W 074°00'0 0.0
2017-May-21 02:28N 40°40' W 074°00'0 0.0
2017-May-21 01:58N 40°40' W 074°00'0 0.0
2017-May-21 01:28N 40°40' W 074°00'0 0.0
2017-May-21 00:59N 40°40' W 074°00'0 0.0
2017-May-21 00:29N 40°40' W 074°00'0 0.0
2017-May-20 23:59N 40°40' W 074°00'0 0.0
2017-May-20 23:30N 40°40' W 074°00'0 0.0
2017-May-20 23:00N 40°40' W 074°00'0 0.0
2017-May-20 22:30N 40°40' W 074°00'0 0.0
2017-May-20 21:58N 40°40' W 074°00'0 0.0
2017-May-20 21:28N 40°40' W 074°00'0 0.0
2017-May-20 20:58N 40°40' W 074°00'0 0.0
2017-May-20 20:29N 40°40' W 074°00'0 0.0
2017-May-20 19:59N 40°40' W 074°00'4 8.0
2017-May-20 19:30N 40°39' W 074°05'1 1.0
2017-May-20 19:00N 40°39' W 074°04'3 6.4
2017-May-20 18:30N 40°40' W 074°00'0 0.1
2017-May-20 17:59N 40°40' W 074°00'0 0.1
2017-May-20 17:29N 40°40' W 074°00'2 4.1
2017-May-20 16:58N 40°40' W 074°03'1 3.2
2017-May-20 16:31N 40°39' W 074°04'2 3.3
2017-May-20 16:00N 40°39' W 074°06'4 7.9
2017-May-20 15:30N 40°40' W 074°01'0 0.5
2017-May-20 15:00N 40°40' W 074°01'1 0.5
2017-May-20 13:58N 40°40' W 074°00'0 0.0
2017-May-20 13:28N 40°40' W 074°00'0 0.0
2017-May-20 12:58N 40°40' W 074°00'0 0.0
2017-May-20 12:29N 40°40' W 074°00'0 0.0
2017-May-20 11:59N 40°40' W 074°00'0 0.9
2017-May-20 11:31N 40°40' W 074°01'4 7.6
2017-May-20 11:01N 40°39' W 074°05'0 0.8
2017-May-20 10:29N 40°39' W 074°06'2 3.5
2017-May-20 09:58N 40°40' W 074°04'0 0.3
2017-May-20 09:30N 40°40' W 074°04'2 3.5
2017-May-20 08:59N 40°39' W 074°03'0 0.2
2017-May-20 08:29N 40°39' W 074°03'0 0.0
2017-May-20 08:00N 40°39' W 074°03'0 0.1
2017-May-20 07:30N 40°39' W 074°03'0 0.0
2017-May-20 07:00N 40°39' W 074°03'0 0.1
2017-May-20 06:28N 40°39' W 074°03'1 1.6
2017-May-20 05:58N 40°38' W 074°04'0 0.0
2017-May-20 05:29N 40°38' W 074°04'0 0.0
2017-May-20 04:59N 40°38' W 074°04'0 0.1
2017-May-20 04:29N 40°38' W 074°04'0 0.0
2017-May-20 04:00N 40°38' W 074°04'0 0.1
2017-May-20 03:30N 40°38' W 074°04'0 0.0
2017-May-20 03:00N 40°38' W 074°04'0 0.0
2017-May-20 02:28N 40°38' W 074°04'0 0.0
2017-May-20 01:58N 40°38' W 074°04'1 3.1
2017-May-20 01:30N 40°39' W 074°06'3 5.1
2017-May-20 01:00N 40°40' W 074°09'3 5.2
2017-May-20 00:30N 40°38' W 074°12'0 0.0
2017-May-19 23:58N 40°38' W 074°12'0 0.0
2017-May-19 23:28N 40°38' W 074°12'0 0.0
2017-May-19 22:58N 40°38' W 074°12'0 0.0
2017-May-19 22:20N 40°38' W 074°12'0 0.0
2017-May-19 21:59N 40°38' W 074°12'0 0.0
2017-May-19 21:29N 40°38' W 074°12'0 0.0
2017-May-19 20:48N 40°38' W 074°12'0 0.0
2017-May-19 20:30N 40°38' W 074°12'0 0.0
2017-May-19 20:00N 40°38' W 074°12'0 0.0
2017-May-19 19:30N 40°38' W 074°12'0 0.0
2017-May-19 18:58N 40°38' W 074°12'2 5.2
2017-May-19 18:30N 40°39' W 074°09'0 0.9
2017-May-19 17:59N 40°40' W 074°09'2 3.3
2017-May-19 17:31N 40°41' W 074°09'0 0.0
2017-May-19 17:00N 40°41' W 074°09'0 0.0
2017-May-19 16:30N 40°41' W 074°09'0 0.0
2017-May-19 15:58N 40°41' W 074°09'0 0.0
2017-May-19 15:28N 40°41' W 074°09'0 0.0
2017-May-19 14:58N 40°41' W 074°09'0 0.0
2017-May-19 13:59N 40°41' W 074°09'0 0.0
2017-May-19 13:29N 40°41' W 074°09'2 4.4
2017-May-19 13:00N 40°39' W 074°09'2 3.6
2017-May-19 12:30N 40°39' W 074°07'4 7.8
2017-May-19 12:00N 40°38' W 074°12'2 4.5
2017-May-19 11:29N 40°36' W 074°12'3 5.7
2017-May-19 11:00N 40°39' W 074°11'3 6.0
2017-May-19 10:30N 40°38' W 074°07'0 0.0
2017-May-19 10:00N 40°38' W 074°07'0 0.0
2017-May-19 09:30N 40°38' W 074°07'0 0.0
2017-May-19 09:01N 40°38' W 074°07'0 0.0
2017-May-19 08:28N 40°38' W 074°07'0 0.0
2017-May-19 07:58N 40°38' W 074°07'0 0.0
2017-May-19 07:29N 40°38' W 074°07'0 0.0
2017-May-19 06:59N 40°38' W 074°07'0 0.0
2017-May-19 06:29N 40°38' W 074°07'0 0.0
2017-May-19 06:00N 40°38' W 074°07'0 0.0
2017-May-19 05:30N 40°38' W 074°07'0 0.0
2017-May-19 04:57N 40°38' W 074°07'0 0.0
2017-May-19 04:31N 40°38' W 074°07'0 0.1
2017-May-19 04:00N 40°39' W 074°07'4 7.3
2017-May-19 03:28N 40°40' W 074°03'2 4.0
2017-May-19 03:00N 40°39' W 074°04'3 6.5
2017-May-19 02:30N 40°40' W 074°09'1 2.7
2017-May-19 01:59N 40°41' W 074°09'0 0.0
2017-May-19 01:30N 40°41' W 074°09'0 1.0
2017-May-19 01:00N 40°41' W 074°08'3 5.1
2017-May-19 00:31N 40°39' W 074°06'2 3.5
2017-May-19 00:00N 40°39' W 074°04'3 5.7
2017-May-18 23:30N 40°40' W 074°00'3 6.9
2017-May-18 22:59N 40°38' W 074°04'0 0.3
2017-May-18 22:30N 40°38' W 074°04'0 0.1
2017-May-18 22:00N 40°38' W 074°04'0 0.2
2017-May-18 21:30N 40°38' W 074°04'0 0.1
2017-May-18 20:58N 40°38' W 074°04'0 0.2
2017-May-18 20:30N 40°38' W 074°04'3 6.7
2017-May-18 20:00N 40°40' W 074°00'0 0.0
2017-May-18 19:30N 40°40' W 074°00'2 4.3
2017-May-18 19:00N 40°39' W 074°02'0 0.4
2017-May-18 18:30N 40°39' W 074°03'4 8.2
2017-May-18 18:01N 40°43' W 074°01'3 5.8
2017-May-18 17:26N 40°46' W 073°60'0 0.1
2017-May-18 16:53N 40°46' W 073°60'0 0.0
2017-May-18 16:29N 40°46' W 073°60'0 0.0
2017-May-18 15:59N 40°46' W 073°60'0 0.0
2017-May-18 15:30N 40°46' W 073°60'0 0.0
2017-May-18 14:51N 40°46' W 073°60'0 0.0
2017-May-18 14:01N 40°46' W 073°60'0 0.0
2017-May-18 13:28N 40°46' W 073°60'0 0.1
2017-May-18 13:00N 40°46' W 073°60'0 0.0
2017-May-18 12:30N 40°46' W 073°60'0 0.0
2017-May-18 12:00N 40°46' W 073°60'0 0.1
2017-May-18 11:29N 40°46' W 074°00'1 2.5
2017-May-18 10:58N 40°45' W 074°01'3 5.7
2017-May-18 10:30N 40°42' W 074°02'2 4.4
2017-May-18 09:58N 40°40' W 074°03'0 0.0
2017-May-18 09:29N 40°40' W 074°03'1 1.9
2017-May-18 09:00N 40°40' W 074°02'1 2.6
2017-May-18 08:30N 40°40' W 074°00'3 6.3
2017-May-18 08:01N 40°38' W 074°03'0 0.7
2017-May-18 07:29N 40°38' W 074°04'0 0.0
2017-May-18 07:00N 40°38' W 074°04'0 0.0
2017-May-18 06:30N 40°38' W 074°04'0 0.0
2017-May-18 06:00N 40°38' W 074°04'0 0.1
2017-May-18 05:28N 40°38' W 074°04'0 0.0
2017-May-18 04:58N 40°38' W 074°04'0 0.0
2017-May-18 04:28N 40°38' W 074°04'0 0.9
2017-May-18 03:58N 40°38' W 074°04'3 7.0
2017-May-18 03:30N 40°40' W 074°00'0 0.2
2017-May-18 02:58N 40°40' W 074°00'0 0.0
2017-May-18 02:28N 40°40' W 074°00'0 0.0
2017-May-18 01:58N 40°40' W 074°00'0 0.0
2017-May-18 01:29N 40°40' W 074°00'0 0.0
2017-May-18 00:59N 40°40' W 074°00'0 0.0
2017-May-18 00:29N 40°40' W 074°00'0 0.0
2017-May-18 00:00N 40°40' W 074°00'0 0.0
2017-May-17 23:30N 40°40' W 074°00'1 2.8
2017-May-17 23:00N 40°41' W 074°00'0 0.1
2017-May-17 22:31N 40°41' W 074°00'3 6.6
2017-May-17 22:00N 40°40' W 074°04'1 1.8
2017-May-17 21:29N 40°39' W 074°05'1 1.4
2017-May-17 20:56N 40°39' W 074°06'1 2.9
2017-May-17 20:31N 40°39' W 074°04'0 0.9
2017-May-17 19:58N 40°38' W 074°04'0 0.4
2017-May-17 19:30N 40°38' W 074°04'1 2.2
2017-May-17 19:00N 40°39' W 074°03'1 2.3
2017-May-17 18:29N 40°41' W 074°03'0 0.0
2017-May-17 17:59N 40°41' W 074°03'0 0.0
2017-May-17 17:29N 40°41' W 074°03'0 0.1
2017-May-17 17:00N 40°40' W 074°03'0 0.1
2017-May-17 16:30N 40°40' W 074°03'0 0.0
2017-May-17 16:00N 40°40' W 074°03'0 0.0
2017-May-17 15:28N 40°40' W 074°03'2 4.9
2017-May-17 15:00N 40°39' W 074°05'1 0.5
2017-May-17 13:58N 40°39' W 074°06'0 0.0
2017-May-17 13:29N 40°39' W 074°06'0 0.0
2017-May-17 12:59N 40°39' W 074°06'2 4.3
2017-May-17 12:30N 40°39' W 074°03'2 4.5
2017-May-17 11:58N 40°40' W 074°00'3 6.4
2017-May-17 11:31N 40°39' W 074°04'4 7.8
2017-May-17 11:00N 40°39' W 074°09'1 1.1
2017-May-17 10:30N 40°39' W 074°09'3 5.1
2017-May-17 09:58N 40°39' W 074°05'1 1.1
2017-May-17 09:29N 40°39' W 074°06'2 4.2
2017-May-17 09:00N 40°40' W 074°08'1 2.6
2017-May-17 08:28N 40°41' W 074°09'0 0.0
2017-May-17 07:58N 40°41' W 074°09'0 0.0
2017-May-17 07:28N 40°41' W 074°09'0 0.0
2017-May-17 06:59N 40°41' W 074°09'0 0.0
2017-May-17 06:29N 40°41' W 074°09'0 0.0
2017-May-17 05:59N 40°41' W 074°09'0 0.0
2017-May-17 05:31N 40°41' W 074°09'3 5.7
2017-May-17 05:00N 40°39' W 074°08'1 2.3
2017-May-17 04:28N 40°39' W 074°06'0 0.6
2017-May-17 03:59N 40°39' W 074°06'0 0.0
2017-May-17 03:29N 40°39' W 074°06'0 0.0
2017-May-17 02:59N 40°39' W 074°06'0 0.0
2017-May-17 02:27N 40°39' W 074°06'0 0.0
2017-May-17 02:00N 40°39' W 074°06'3 6.3
2017-May-17 01:31N 40°40' W 074°03'4 7.8
2017-May-17 01:00N 40°42' W 073°58'1 1.4
2017-May-17 00:30N 40°42' W 073°59'1 1.3
2017-May-17 00:00N 40°42' W 074°00'2 4.8
2017-May-16 23:30N 40°40' W 074°02'2 4.9
2017-May-16 23:00N 40°39' W 074°05'1 2.0
2017-May-16 22:30N 40°39' W 074°06'4 9.0
2017-May-16 22:00N 40°40' W 074°00'0 0.3
2017-May-16 21:29N 40°40' W 074°00'0 0.0
2017-May-16 20:59N 40°40' W 074°00'0 0.1
2017-May-16 20:29N 40°40' W 074°00'0 0.1
2017-May-16 20:00N 40°40' W 074°00'0 0.1
2017-May-16 19:30N 40°40' W 074°00'0 0.0
2017-May-16 19:00N 40°40' W 074°00'0 0.0
2017-May-16 18:30N 40°40' W 074°00'0 0.0
2017-May-16 17:58N 40°40' W 074°00'0 0.0
2017-May-16 17:28N 40°40' W 074°00'0 0.0
2017-May-16 16:58N 40°40' W 074°00'0 0.0
2017-May-16 16:29N 40°40' W 074°00'0 0.0
2017-May-16 15:59N 40°40' W 074°00'0 0.0
2017-May-16 15:29N 40°40' W 074°00'0 0.0
2017-May-16 14:59N 40°40' W 074°00'0 0.0
2017-May-16 14:30N 40°40' W 074°00'0 0.1
2017-May-16 13:30N 40°40' W 074°00'4 8.4
2017-May-16 13:00N 40°39' W 074°06'1 1.8
2017-May-16 12:30N 40°39' W 074°07'2 3.7
2017-May-16 12:00N 40°39' W 074°04'2 3.4
2017-May-16 11:30N 40°40' W 074°03'1 1.9
2017-May-16 10:59N 40°40' W 074°04'0 0.0
2017-May-16 10:29N 40°40' W 074°04'0 0.0
2017-May-16 10:00N 40°40' W 074°04'0 0.0
2017-May-16 09:30N 40°40' W 074°04'1 2.7
2017-May-16 08:59N 40°39' W 074°05'0 0.0
2017-May-16 08:29N 40°39' W 074°05'3 5.8
2017-May-16 08:00N 40°39' W 074°09'2 4.2
2017-May-16 07:31N 40°41' W 074°09'0 0.0
2017-May-16 06:58N 40°41' W 074°09'0 0.0
2017-May-16 06:28N 40°41' W 074°09'0 0.0
2017-May-16 05:58N 40°41' W 074°09'0 0.0
2017-May-16 05:29N 40°41' W 074°09'0 0.0
2017-May-16 04:59N 40°41' W 074°09'0 0.0
2017-May-16 04:29N 40°41' W 074°09'0 0.0
2017-May-16 04:00N 40°41' W 074°09'0 0.2
2017-May-16 03:30N 40°41' W 074°09'0 0.2
2017-May-16 03:00N 40°41' W 074°09'0 0.0
2017-May-16 02:29N 40°41' W 074°09'0 0.0
2017-May-16 01:59N 40°41' W 074°09'0 0.0
2017-May-16 01:29N 40°41' W 074°09'0 0.0
2017-May-16 01:00N 40°41' W 074°09'0 0.0
2017-May-16 00:30N 40°41' W 074°09'0 0.0
2017-May-16 00:00N 40°41' W 074°09'0 0.0
2017-May-15 23:28N 40°41' W 074°09'0 0.4
2017-May-15 22:55N 40°41' W 074°09'1 1.6
2017-May-15 22:30N 40°40' W 074°08'0 0.9
2017-May-15 22:01N 40°40' W 074°09'0 0.2
2017-May-15 21:28N 40°40' W 074°09'0 0.1
2017-May-15 21:00N 40°40' W 074°09'1 2.8
2017-May-15 20:30N 40°39' W 074°08'2 3.5
2017-May-15 20:00N 40°39' W 074°05'0 0.7
2017-May-15 19:30N 40°39' W 074°05'0 0.2
2017-May-15 18:59N 40°39' W 074°05'0 0.0
2017-May-15 18:29N 40°39' W 074°05'1 3.1
2017-May-15 18:00N 40°40' W 074°03'2 4.9
2017-May-15 17:30N 40°40' W 074°00'0 0.0
2017-May-15 16:58N 40°40' W 074°00'0 0.0
2017-May-15 16:28N 40°40' W 074°00'0 0.0
2017-May-15 15:58N 40°40' W 074°00'0 0.0
2017-May-15 15:29N 40°40' W 074°00'0 0.0
2017-May-15 14:59N 40°40' W 074°00'0 0.0
2017-May-15 14:29N 40°40' W 074°00'3 3.3
2017-May-15 13:30N 40°40' W 074°04'1 1.0
2017-May-15 12:58N 40°40' W 074°05'0 0.0
2017-May-15 12:28N 40°40' W 074°05'0 0.0
2017-May-15 11:59N 40°40' W 074°05'0 0.0
2017-May-15 11:29N 40°40' W 074°05'0 0.0
2017-May-15 10:59N 40°40' W 074°05'0 0.0
2017-May-15 10:30N 40°40' W 074°05'1 1.7
2017-May-15 09:59N 40°39' W 074°05'3 6.1
2017-May-15 09:30N 40°39' W 074°09'2 4.3
2017-May-15 08:58N 40°41' W 074°10'0 0.0
2017-May-15 08:28N 40°41' W 074°10'0 0.0
2017-May-15 07:58N 40°41' W 074°10'0 0.0
2017-May-15 07:29N 40°41' W 074°10'0 0.0
2017-May-15 06:59N 40°41' W 074°10'0 0.0
2017-May-15 06:29N 40°41' W 074°10'0 0.0
2017-May-15 06:00N 40°41' W 074°10'0 0.0
2017-May-15 05:30N 40°41' W 074°10'0 0.0
2017-May-15 05:00N 40°41' W 074°10'0 0.0
2017-May-15 04:28N 40°41' W 074°10'0 0.0
2017-May-15 03:55N 40°41' W 074°10'0 0.0
2017-May-15 03:28N 40°41' W 074°10'0 1.0
2017-May-15 03:00N 40°41' W 074°09'0 0.1
2017-May-15 02:29N 40°41' W 074°09'0 0.2
2017-May-15 02:00N 40°41' W 074°09'0 0.5
2017-May-15 01:30N 40°41' W 074°09'0 0.0
2017-May-15 00:57N 40°41' W 074°09'0 0.0
2017-May-15 00:30N 40°41' W 074°09'0 0.0
2017-May-15 00:01N 40°41' W 074°09'2 3.3
2017-May-14 23:30N 40°40' W 074°09'3 5.3
2017-May-14 23:00N 40°38' W 074°12'1 1.4
2017-May-14 22:30N 40°38' W 074°12'4 8.0
2017-May-14 22:00N 40°39' W 074°07'510.5
2017-May-14 21:31N 40°41' W 074°01'1 1.3
2017-May-14 20:59N 40°41' W 074°00'0 0.0
2017-May-14 20:30N 40°41' W 074°00'0 0.1
2017-May-14 19:58N 40°41' W 074°00'0 0.0
2017-May-14 19:28N 40°41' W 074°00'0 0.0
2017-May-14 18:59N 40°41' W 074°00'0 0.1
2017-May-14 18:29N 40°41' W 074°00'0 0.2
2017-May-14 17:59N 40°41' W 074°00'1 2.7
2017-May-14 17:28N 40°40' W 074°00'0 0.0
2017-May-14 16:58N 40°40' W 074°00'2 4.3
2017-May-14 16:30N 40°40' W 074°03'0 0.1
2017-May-14 15:59N 40°40' W 074°03'2 3.9
2017-May-14 15:30N 40°40' W 074°00'1 2.7
2017-May-14 15:00N 40°39' W 074°02'5 9.8
2017-May-14 14:30N 40°39' W 074°08'3 2.9
2017-May-14 13:29N 40°38' W 074°12'1 1.3
2017-May-14 12:59N 40°38' W 074°12'2 5.3
2017-May-14 12:30N 40°39' W 074°09'2 3.1
2017-May-14 11:59N 40°41' W 074°09'0 0.1
2017-May-14 11:30N 40°41' W 074°09'0 0.4
2017-May-14 11:00N 40°41' W 074°09'1 1.2
2017-May-14 10:30N 40°41' W 074°09'1 1.4
2017-May-14 10:00N 40°40' W 074°08'0 0.9
2017-May-14 09:29N 40°40' W 074°09'0 0.2
2017-May-14 08:59N 40°40' W 074°09'0 0.2
2017-May-14 08:29N 40°40' W 074°09'1 2.3
2017-May-14 08:00N 40°39' W 074°09'2 4.3
2017-May-14 07:31N 40°39' W 074°06'0 0.2
2017-May-14 06:58N 40°39' W 074°06'2 3.4
2017-May-14 06:30N 40°39' W 074°04'3 5.6
2017-May-14 05:59N 40°40' W 074°00'0 0.0
2017-May-14 05:29N 40°40' W 074°00'0 0.0
2017-May-14 05:00N 40°40' W 074°00'0 0.0
2017-May-14 04:30N 40°40' W 074°00'0 0.0
2017-May-14 04:00N 40°40' W 074°00'0 0.0
2017-May-14 03:28N 40°40' W 074°00'0 0.0
2017-May-14 02:58N 40°40' W 074°00'0 0.0
2017-May-14 02:28N 40°40' W 074°00'0 0.0
2017-May-14 01:59N 40°40' W 074°00'0 0.0
2017-May-14 01:29N 40°40' W 074°00'0 0.0
2017-May-14 00:59N 40°40' W 074°00'0 0.0
2017-May-14 00:30N 40°40' W 074°00'0 0.0
2017-May-14 00:00N 40°40' W 074°00'0 0.0
2017-May-13 23:30N 40°40' W 074°00'0 0.0
2017-May-13 23:00N 40°40' W 074°00'2 3.6
2017-May-13 22:29N 40°40' W 074°03'2 3.6
2017-May-13 21:58N 40°40' W 074°01'0 0.1
2017-May-13 21:28N 40°40' W 074°00'0 0.0
2017-May-13 20:58N 40°40' W 074°00'0 0.0
2017-May-13 20:29N 40°40' W 074°00'1 1.3
2017-May-13 20:00N 40°40' W 074°01'1 2.7
2017-May-13 19:30N 40°41' W 074°03'510.0
2017-May-13 19:01N 40°45' W 074°01'1 1.8
2017-May-13 18:28N 40°46' W 073°60'0 0.0
2017-May-13 17:59N 40°46' W 073°60'0 0.0
2017-May-13 17:29N 40°46' W 073°60'0 0.0
2017-May-13 16:59N 40°46' W 073°60'  

Dump ship's entire track history